createdAt,value
2019-05-13T00:00:03.596Z,9.70
2019-05-13T00:02:07.059Z,10.23
2019-05-13T00:04:11.238Z,9.55
2019-05-13T00:06:15.147Z,11.05
2019-05-13T00:08:21.739Z,10.23
2019-05-13T00:10:24.935Z,10.65
2019-05-13T00:12:29.335Z,10.75
2019-05-13T00:14:34.441Z,11.20
2019-05-13T00:16:38.454Z,10.93
2019-05-13T00:18:44.258Z,10.95
2019-05-13T00:20:48.025Z,11.28
2019-05-13T00:22:53.835Z,10.15
2019-05-13T00:24:57.826Z,11.28
2019-05-13T00:27:03.887Z,10.58
2019-05-13T00:29:07.660Z,10.53
2019-05-13T00:31:13.703Z,11.18
2019-05-13T00:33:17.400Z,11.55
2019-05-13T00:35:23.256Z,11.35
2019-05-13T00:37:27.051Z,11.30
2019-05-13T00:39:33.403Z,12.03
2019-05-13T00:41:36.704Z,10.88
2019-05-13T00:43:40.675Z,11.93
2019-05-13T00:45:45.300Z,12.63
2019-05-13T00:47:49.307Z,11.10
2019-05-13T00:49:54.091Z,12.03
2019-05-13T00:51:58.160Z,12.50
2019-05-13T00:54:04.150Z,13.30
2019-05-13T00:56:07.994Z,12.75
2019-05-13T00:58:13.972Z,13.72
2019-05-13T01:02:33.808Z,13.72
2019-05-13T01:04:37.901Z,15.78
2019-05-13T01:06:43.554Z,15.63
2019-05-13T01:08:47.451Z,16.20
2019-05-13T01:10:53.536Z,15.60
2019-05-13T01:12:56.812Z,15.35
2019-05-13T01:15:00.734Z,15.18
2019-05-13T01:17:04.721Z,15.75
2019-05-13T01:19:08.575Z,14.87
2019-05-13T01:21:13.346Z,14.58
2019-05-13T01:23:17.300Z,14.33
2019-05-13T01:25:21.203Z,15.50
2019-05-13T01:27:27.811Z,13.83
2019-05-13T01:29:31.651Z,15.32
2019-05-13T01:31:35.978Z,14.93
2019-05-13T01:33:39.850Z,15.55
2019-05-13T01:35:44.468Z,14.58
2019-05-13T01:37:48.739Z,14.68
2019-05-13T01:39:54.051Z,14.80
2019-05-13T01:41:58.110Z,14.78
2019-05-13T01:44:04.001Z,13.65
2019-05-13T01:46:07.615Z,14.20
2019-05-13T01:48:13.876Z,13.78
2019-05-13T01:50:17.110Z,16.75
2019-05-13T01:52:20.983Z,15.93
2019-05-13T01:54:24.835Z,17.70
2019-05-13T01:56:28.746Z,19.35
2019-05-13T01:58:33.962Z,18.73
2019-05-13T02:00:40.087Z,19.42
2019-05-13T02:02:44.612Z,19.55
2019-05-13T02:04:48.646Z,19.07
2019-05-13T02:06:54.372Z,22.07
2019-05-13T02:08:57.996Z,19.82
2019-05-13T02:11:04.047Z,20.27
2019-05-13T02:13:07.640Z,19.23
2019-05-13T02:15:14.306Z,20.82
2019-05-13T02:17:17.479Z,17.75
2019-05-13T02:19:21.732Z,19.40
2019-05-13T02:21:25.592Z,16.80
2019-05-13T02:23:29.450Z,18.02
2019-05-13T02:25:34.054Z,16.65
2019-05-13T02:27:38.037Z,17.87
2019-05-13T02:29:43.618Z,17.90
2019-05-13T02:31:55.210Z,15.23
2019-05-13T02:33:53.284Z,14.90
2019-05-13T02:35:57.166Z,16.02
2019-05-13T02:38:17.430Z,16.02
2019-05-13T02:40:07.514Z,14.73
2019-05-13T02:42:13.242Z,14.25
2019-05-13T02:44:17.023Z,13.58
2019-05-13T02:46:22.639Z,14.33
2019-05-13T02:48:26.421Z,16.62
2019-05-13T02:50:33.895Z,14.15
2019-05-13T02:52:36.649Z,14.55
2019-05-13T02:54:42.755Z,14.80
2019-05-13T02:56:46.041Z,13.93
2019-05-13T02:58:52.620Z,12.58
2019-05-13T03:00:55.570Z,12.78
2019-05-13T03:03:02.891Z,11.85
2019-05-13T03:05:08.238Z,12.73
2019-05-13T03:07:12.216Z,12.23
2019-05-13T03:09:16.041Z,12.47
2019-05-13T03:11:22.665Z,12.10
2019-05-13T03:13:25.578Z,10.95
2019-05-13T03:15:32.750Z,10.55
2019-05-13T03:17:53.307Z,10.20
2019-05-13T03:19:57.239Z,10.32
2019-05-13T03:22:03.077Z,10.40
2019-05-13T03:24:06.702Z,9.65
2019-05-13T03:26:13.041Z,9.05
2019-05-13T03:28:16.170Z,9.08
2019-05-13T03:30:25.277Z,8.55
2019-05-13T03:32:31.168Z,8.73
2019-05-13T03:34:35.801Z,8.53
2019-05-13T03:36:44.989Z,9.55
2019-05-13T03:39:01.867Z,9.33
2019-05-13T03:40:52.737Z,9.30
2019-05-13T03:43:02.305Z,10.63
2019-05-13T03:45:05.954Z,10.68
2019-05-13T03:47:15.946Z,10.05
2019-05-13T03:49:23.285Z,10.50
2019-05-13T03:51:27.407Z,9.98
2019-05-13T03:53:32.586Z,9.33
2019-05-13T03:55:36.843Z,9.00
2019-05-13T03:57:42.615Z,9.65
2019-05-13T03:59:46.334Z,10.58
2019-05-13T04:01:52.442Z,9.10
2019-05-13T04:03:56.104Z,8.40
2019-05-13T04:06:06.031Z,7.80
2019-05-13T04:08:12.983Z,8.45
2019-05-13T04:10:15.577Z,7.55
2019-05-13T04:12:22.930Z,7.33
2019-05-13T04:14:27.485Z,7.47
2019-05-13T04:16:32.333Z,8.25
2019-05-13T04:18:36.364Z,8.03
2019-05-13T04:20:42.430Z,7.97
2019-05-13T04:22:46.263Z,7.10
2019-05-13T04:24:53.050Z,7.00
2019-05-13T04:26:56.005Z,7.10
2019-05-13T04:29:03.040Z,6.70
2019-05-13T04:31:05.645Z,6.37
2019-05-13T04:33:09.746Z,6.78
2019-05-13T04:35:13.691Z,6.50
2019-05-13T04:37:22.010Z,6.20
2019-05-13T04:39:40.344Z,6.08
2019-05-13T04:41:33.106Z,6.40
2019-05-13T04:43:36.070Z,6.30
2019-05-13T04:45:42.863Z,6.35
2019-05-13T04:47:45.699Z,6.83
2019-05-13T04:49:53.202Z,6.37
2019-05-13T04:51:55.197Z,6.35
2019-05-13T04:54:02.491Z,6.67
2019-05-13T04:56:04.811Z,5.87
2019-05-13T04:58:08.656Z,5.90
2019-05-13T05:00:13.084Z,5.58
2019-05-13T05:02:39.997Z,6.03
2019-05-13T05:07:13.506Z,6.10
2019-05-13T05:09:29.273Z,5.47
2019-05-13T05:12:02.185Z,5.90
2019-05-13T05:14:26.542Z,5.90
2019-05-13T05:16:44.731Z,5.62
2019-05-13T05:19:01.797Z,5.67
2019-05-13T05:21:13.670Z,5.85
2019-05-13T05:23:42.251Z,5.00
2019-05-13T05:25:49.231Z,5.20
2019-05-13T05:28:14.275Z,5.53
2019-05-13T05:30:24.046Z,6.20
2019-05-13T05:32:36.550Z,6.15
2019-05-13T05:35:01.236Z,5.17
2019-05-13T05:37:27.563Z,5.37
2019-05-13T05:39:31.668Z,5.70
2019-05-13T05:41:37.277Z,5.15
2019-05-13T05:43:45.334Z,4.72
2019-05-13T05:45:47.758Z,5.12
2019-05-13T05:47:53.714Z,5.33
2019-05-13T05:49:58.837Z,5.42
2019-05-13T05:52:05.670Z,4.70
2019-05-13T05:54:14.772Z,4.85
2019-05-13T05:56:21.873Z,5.20
2019-05-13T05:58:25.340Z,5.70
2019-05-13T06:00:32.370Z,7.72
2019-05-13T06:02:37.832Z,9.00
2019-05-13T06:04:43.296Z,8.50
2019-05-13T06:06:47.715Z,7.15
2019-05-13T06:08:51.781Z,4.58
2019-05-13T06:10:55.715Z,5.80
2019-05-13T06:13:01.819Z,3.62
2019-05-13T06:15:06.816Z,3.80
2019-05-13T06:17:11.494Z,4.25
2019-05-13T06:19:17.862Z,3.50
2019-05-13T06:21:21.609Z,4.70
2019-05-13T06:23:26.079Z,4.70
2019-05-13T06:25:33.350Z,6.30
2019-05-13T06:27:35.581Z,6.80
2019-05-13T06:29:41.912Z,8.03
2019-05-13T06:31:45.103Z,5.30
2019-05-13T06:33:51.267Z,3.75
2019-05-13T06:35:54.984Z,3.05
2019-05-13T06:38:01.445Z,3.30
2019-05-13T06:40:06.612Z,3.20
2019-05-13T06:42:12.771Z,3.00
2019-05-13T06:44:16.772Z,3.37
2019-05-13T06:46:21.862Z,3.15
2019-05-13T06:48:26.031Z,3.05
2019-05-13T06:50:32.185Z,3.20
2019-05-13T06:52:35.414Z,2.70
2019-05-13T06:54:41.637Z,2.77
2019-05-13T06:56:44.825Z,3.17
2019-05-13T06:58:51.968Z,3.00
2019-05-13T07:00:57.943Z,3.12
2019-05-13T07:03:02.264Z,3.30
2019-05-13T07:05:07.743Z,3.72
2019-05-13T07:07:16.774Z,3.35
2019-05-13T07:09:17.546Z,3.02
2019-05-13T07:11:24.690Z,2.52
2019-05-13T07:13:27.045Z,2.55
2019-05-13T07:15:31.472Z,2.30
2019-05-13T07:17:35.609Z,3.35
2019-05-13T07:19:41.438Z,3.10
2019-05-13T07:21:45.057Z,3.47
2019-05-13T07:23:52.147Z,2.92
2019-05-13T07:25:54.456Z,2.90
2019-05-13T07:27:58.356Z,3.02
2019-05-13T07:30:02.461Z,2.45
2019-05-13T07:32:06.352Z,2.55
2019-05-13T07:34:11.643Z,2.55
2019-05-13T07:36:15.758Z,2.83
2019-05-13T07:38:22.225Z,3.17
2019-05-13T07:40:25.635Z,3.08
2019-05-13T07:42:31.241Z,2.50
2019-05-13T07:44:35.012Z,2.20
2019-05-13T07:46:38.964Z,2.45
2019-05-13T07:48:42.819Z,2.55
2019-05-13T07:50:59.100Z,2.20
2019-05-13T07:52:52.305Z,1.90
2019-05-13T07:54:56.235Z,1.72
2019-05-13T07:57:02.236Z,2.25
2019-05-13T07:59:06.278Z,1.70
2019-05-13T08:01:12.188Z,2.27
2019-05-13T08:03:16.091Z,2.35
2019-05-13T08:05:22.230Z,1.65
2019-05-13T08:07:27.001Z,1.80
2019-05-13T08:09:31.911Z,1.52
2019-05-13T08:11:58.210Z,1.62
2019-05-13T08:13:44.894Z,2.40
2019-05-13T08:15:48.834Z,2.10
2019-05-13T08:17:52.812Z,2.60
2019-05-13T08:19:56.777Z,2.30
2019-05-13T08:22:02.107Z,2.70
2019-05-13T08:24:07.833Z,2.35
2019-05-13T08:26:12.428Z,2.12
2019-05-13T08:28:16.694Z,2.15
2019-05-13T08:30:22.773Z,2.60
2019-05-13T08:32:26.240Z,3.33
2019-05-13T08:34:32.570Z,2.30
2019-05-13T08:36:39.472Z,2.58
2019-05-13T08:38:46.226Z,2.40
2019-05-13T08:40:51.235Z,2.40
2019-05-13T08:42:55.293Z,2.30
2019-05-13T08:45:01.674Z,2.15
2019-05-13T08:47:04.694Z,2.72
2019-05-13T08:49:08.597Z,2.62
2019-05-13T08:51:12.546Z,2.92
2019-05-13T08:53:16.448Z,2.85
2019-05-13T08:55:21.444Z,2.55
2019-05-13T08:57:25.506Z,3.35
2019-05-13T08:59:31.554Z,2.45
2019-05-13T09:01:34.952Z,2.87
2019-05-13T09:03:41.456Z,2.70
2019-05-13T09:05:44.397Z,2.83
2019-05-13T09:07:48.387Z,2.37
2019-05-13T09:09:52.605Z,2.58
2019-05-13T09:11:56.491Z,3.52
2019-05-13T09:14:02.251Z,3.67
2019-05-13T09:16:06.528Z,3.37
2019-05-13T09:18:11.431Z,3.10
2019-05-13T09:20:15.494Z,2.50
2019-05-13T09:22:21.386Z,2.80
2019-05-13T09:26:31.596Z,3.05
2019-05-13T09:28:35.781Z,3.02
2019-05-13T09:30:42.169Z,3.17
2019-05-13T09:32:45.385Z,3.05
2019-05-13T09:34:49.242Z,2.85
2019-05-13T09:36:53.475Z,2.80
2019-05-13T09:38:57.277Z,2.62
2019-05-13T09:41:02.687Z,3.40
2019-05-13T09:43:06.717Z,3.05
2019-05-13T09:45:12.250Z,2.92
2019-05-13T09:47:18.280Z,3.08
2019-05-13T09:49:23.762Z,3.10
2019-05-13T09:51:28.949Z,3.55
2019-05-13T09:53:32.931Z,3.30
2019-05-13T09:55:36.781Z,3.98
2019-05-13T09:57:41.543Z,3.98
2019-05-13T09:59:45.970Z,3.70
2019-05-13T10:01:51.867Z,3.02
2019-05-13T10:03:58.122Z,3.83
2019-05-13T10:06:02.380Z,3.90
2019-05-13T10:08:06.461Z,3.90
2019-05-13T10:10:12.006Z,4.25
2019-05-13T10:12:17.600Z,4.22
2019-05-13T10:14:23.066Z,3.83
2019-05-13T10:16:27.111Z,3.72
2019-05-13T10:18:32.613Z,3.20
2019-05-13T10:20:58.314Z,3.52
2019-05-13T10:23:01.649Z,4.28
2019-05-13T10:25:07.603Z,4.30
2019-05-13T10:27:12.661Z,3.87
2019-05-13T10:29:18.167Z,3.22
2019-05-13T10:31:22.299Z,2.60
2019-05-13T10:33:26.292Z,2.65
2019-05-13T10:35:33.144Z,3.05
2019-05-13T10:37:37.484Z,2.77
2019-05-13T10:39:41.348Z,2.58
2019-05-13T10:41:45.514Z,3.50
2019-05-13T10:43:51.789Z,4.00
2019-05-13T10:45:58.294Z,3.40
2019-05-13T10:48:02.923Z,3.05
2019-05-13T10:50:08.031Z,3.02
2019-05-13T10:52:12.420Z,3.15
2019-05-13T10:54:16.756Z,2.77
2019-05-13T10:56:20.759Z,3.08
2019-05-13T10:58:24.717Z,2.27
2019-05-13T11:00:54.708Z,2.02
2019-05-13T11:03:00.147Z,2.00
2019-05-13T11:05:06.498Z,2.17
2019-05-13T11:07:12.109Z,2.20
2019-05-13T11:09:15.951Z,2.10
2019-05-13T11:11:21.876Z,2.40
2019-05-13T11:13:25.494Z,2.10
2019-05-13T11:15:32.816Z,3.12
2019-05-13T11:17:37.556Z,2.80
2019-05-13T11:19:41.386Z,3.30
2019-05-13T11:23:53.732Z,2.50
2019-05-13T11:25:57.788Z,2.67
2019-05-13T11:28:01.839Z,3.30
2019-05-13T11:30:07.733Z,2.90
2019-05-13T11:32:13.672Z,2.33
2019-05-13T11:34:17.655Z,2.22
2019-05-13T11:36:24.565Z,2.22
2019-05-13T11:38:32.728Z,2.62
2019-05-13T11:40:35.082Z,2.80
2019-05-13T11:42:42.003Z,2.65
2019-05-13T11:44:45.010Z,2.10
2019-05-13T11:46:48.903Z,2.62
2019-05-13T11:48:52.794Z,2.12
2019-05-13T11:50:56.640Z,2.55
2019-05-13T11:53:06.018Z,2.27
2019-05-13T11:55:12.761Z,2.35
2019-05-13T11:57:15.248Z,2.08
2019-05-13T11:59:21.808Z,1.80
2019-05-13T12:01:24.801Z,2.17
2019-05-13T12:03:32.167Z,2.55
2019-05-13T12:05:34.184Z,2.58
2019-05-13T12:07:38.058Z,2.75
2019-05-13T12:09:42.146Z,2.12
2019-05-13T12:11:49.243Z,1.98
2019-05-13T12:13:54.787Z,1.92
2019-05-13T12:15:58.600Z,1.77
2019-05-13T12:18:02.998Z,2.10
2019-05-13T12:20:06.980Z,2.02
2019-05-13T12:22:13.199Z,1.90
2019-05-13T12:24:16.388Z,2.00
2019-05-13T12:26:23.468Z,2.10
2019-05-13T12:28:27.341Z,1.72
2019-05-13T12:30:33.889Z,1.70
2019-05-13T12:32:38.130Z,1.52
2019-05-13T12:34:45.813Z,1.55
2019-05-13T12:36:49.587Z,1.65
2019-05-13T12:38:54.386Z,1.80
2019-05-13T12:40:58.460Z,1.60
2019-05-13T12:43:02.565Z,1.52
2019-05-13T12:45:10.082Z,1.70
2019-05-13T12:47:13.000Z,1.85
2019-05-13T12:49:16.878Z,1.67
2019-05-13T12:51:22.706Z,2.30
2019-05-13T12:53:26.520Z,1.90
2019-05-13T12:55:32.925Z,2.12
2019-05-13T12:57:36.135Z,2.25
2019-05-13T12:59:42.653Z,4.53
2019-05-13T13:01:47.003Z,2.12
2019-05-13T13:03:50.882Z,2.40
2019-05-13T13:06:20.988Z,1.98
2019-05-13T13:08:17.109Z,1.92
2019-05-13T13:10:07.399Z,2.08
2019-05-13T13:12:34.251Z,2.05
2019-05-13T13:14:38.486Z,7.17
2019-05-13T13:16:36.252Z,2.00
2019-05-13T13:18:43.541Z,2.15
2019-05-13T13:20:46.077Z,2.37
2019-05-13T13:22:50.045Z,2.20
2019-05-13T13:24:57.759Z,4.42
2019-05-13T13:27:01.706Z,2.27
2019-05-13T13:29:05.674Z,1.87
2019-05-13T13:31:12.149Z,2.00
2019-05-13T13:33:15.417Z,1.95
2019-05-13T13:35:21.722Z,2.10
2019-05-13T13:37:24.987Z,2.00
2019-05-13T13:39:28.954Z,1.95
2019-05-13T13:41:33.088Z,2.27
2019-05-13T13:43:37.539Z,1.80
2019-05-13T13:46:06.490Z,3.67
2019-05-13T13:47:59.303Z,2.00
2019-05-13T13:49:56.286Z,2.10
2019-05-13T13:52:00.087Z,3.10
2019-05-13T13:54:03.958Z,3.70
2019-05-13T13:56:07.836Z,2.60
2019-05-13T13:58:25.957Z,2.20
2019-05-13T14:00:40.939Z,2.37
2019-05-13T14:02:42.978Z,1.98
2019-05-13T14:04:44.653Z,2.30
2019-05-13T14:06:28.717Z,2.55
2019-05-13T14:07:00.580Z,2.98
2019-05-13T14:08:54.290Z,2.67
2019-05-13T14:10:58.294Z,2.02
2019-05-13T14:13:04.794Z,6.72
2019-05-13T14:15:08.041Z,10.63
2019-05-13T14:17:11.929Z,3.83
2019-05-13T14:19:25.023Z,2.10
2019-05-13T14:21:29.084Z,1.72
2019-05-13T14:23:33.046Z,3.60
2019-05-13T14:25:36.922Z,2.00
2019-05-13T14:27:42.567Z,1.87
2019-05-13T14:29:49.422Z,2.05
2019-05-13T14:31:52.269Z,1.90
2019-05-13T14:33:56.208Z,1.70
2019-05-13T14:36:01.529Z,1.62
2019-05-13T14:38:05.577Z,2.10
2019-05-13T14:40:12.397Z,2.37
2019-05-13T14:42:16.670Z,2.92
2019-05-13T14:44:21.959Z,2.10
2019-05-13T14:46:43.161Z,2.20
2019-05-13T14:48:32.928Z,1.75
2019-05-13T14:50:37.274Z,2.10
2019-05-13T14:52:41.739Z,2.37
2019-05-13T14:54:45.934Z,5.60
2019-05-13T14:56:52.106Z,3.90
2019-05-13T14:58:55.261Z,4.42
2019-05-13T15:01:12.598Z,9.28
2019-05-13T15:03:04.836Z,10.55
2019-05-13T15:05:11.627Z,6.80
2019-05-13T15:07:15.884Z,3.80
2019-05-13T15:09:20.140Z,2.27
2019-05-13T15:11:25.315Z,1.90
2019-05-13T15:13:31.308Z,1.50
2019-05-13T15:15:34.772Z,1.90
2019-05-13T15:17:38.703Z,1.82
2019-05-13T15:19:45.567Z,1.85
2019-05-13T15:21:51.925Z,1.90
2019-05-13T15:23:55.000Z,2.25
2019-05-13T15:26:03.640Z,2.58
2019-05-13T15:28:07.595Z,1.80
2019-05-13T15:30:18.055Z,2.12
2019-05-13T15:32:21.764Z,2.30
2019-05-13T15:34:25.882Z,6.03
2019-05-13T15:36:31.573Z,3.60
2019-05-13T15:38:35.315Z,3.52
2019-05-13T15:40:41.277Z,4.53
2019-05-13T15:42:44.693Z,2.30
2019-05-13T15:44:48.666Z,2.10
2019-05-13T15:46:53.204Z,3.47
2019-05-13T15:48:57.044Z,2.00
2019-05-13T15:51:04.015Z,2.02
2019-05-13T15:53:07.979Z,3.50
2019-05-13T15:55:12.420Z,3.17
2019-05-13T15:57:16.642Z,2.22
2019-05-13T15:59:21.564Z,2.12
2019-05-13T16:01:25.588Z,3.25
2019-05-13T16:03:29.449Z,2.52
2019-05-13T16:05:33.399Z,2.17
2019-05-13T16:07:37.651Z,2.15
2019-05-13T16:09:42.040Z,2.30
2019-05-13T16:11:46.315Z,2.60
2019-05-13T16:13:51.816Z,2.92
2019-05-13T16:16:01.321Z,1.92
2019-05-13T16:18:06.185Z,2.55
2019-05-13T16:20:11.432Z,2.27
2019-05-13T16:22:15.354Z,2.58
2019-05-13T16:24:21.368Z,4.33
2019-05-13T16:26:27.199Z,3.27
2019-05-13T16:28:32.511Z,2.40
2019-05-13T16:30:36.162Z,2.70
2019-05-13T16:32:42.248Z,2.60
2019-05-13T16:34:45.751Z,3.08
2019-05-13T16:36:49.607Z,2.77
2019-05-13T16:38:53.442Z,2.70
2019-05-13T16:41:00.745Z,3.65
2019-05-13T16:43:08.075Z,2.92
2019-05-13T16:45:16.279Z,2.50
2019-05-13T16:47:24.494Z,3.67
2019-05-13T16:49:33.414Z,4.15
2019-05-13T16:51:42.548Z,7.45
2019-05-13T16:53:52.357Z,2.85
2019-05-13T16:55:56.763Z,10.23
2019-05-13T16:58:01.974Z,6.50
2019-05-13T17:00:08.457Z,3.75
2019-05-13T17:02:12.705Z,3.02
2019-05-13T17:04:16.719Z,2.55
2019-05-13T17:06:21.709Z,5.95
2019-05-13T17:08:25.788Z,5.33
2019-05-13T17:10:31.561Z,3.33
2019-05-13T17:12:35.904Z,4.80
2019-05-13T17:14:41.639Z,7.03
2019-05-13T17:16:51.798Z,4.95
2019-05-13T17:18:55.999Z,6.30
2019-05-13T17:21:01.459Z,3.92
2019-05-13T17:23:07.412Z,3.85
2019-05-13T17:25:14.515Z,4.60
2019-05-13T17:27:22.966Z,5.20
2019-05-13T17:29:31.920Z,4.95
2019-05-13T17:31:37.386Z,4.50
2019-05-13T17:33:43.492Z,4.55
2019-05-13T17:35:50.251Z,4.42
2019-05-13T17:37:58.766Z,4.00
2019-05-13T17:40:06.708Z,3.85
2019-05-13T17:42:13.698Z,6.60
2019-05-13T17:44:17.968Z,7.25
2019-05-13T17:46:22.022Z,5.03
2019-05-13T17:48:29.541Z,4.10
2019-05-13T17:50:32.041Z,5.10
2019-05-13T17:52:35.959Z,4.87
2019-05-13T17:54:42.601Z,3.95
2019-05-13T17:56:54.182Z,3.35
2019-05-13T17:58:58.025Z,5.10
2019-05-13T18:01:03.506Z,5.35
2019-05-13T18:03:07.433Z,4.15
2019-05-13T18:05:12.105Z,3.72
2019-05-13T18:07:16.136Z,3.62
2019-05-13T18:09:22.200Z,4.50
2019-05-13T18:11:25.614Z,5.50
2019-05-13T18:13:29.468Z,4.92
2019-05-13T18:15:33.415Z,4.92
2019-05-13T18:17:37.318Z,4.78
2019-05-13T18:19:42.137Z,4.55
2019-05-13T18:21:46.271Z,3.87
2019-05-13T18:23:52.210Z,4.72
2019-05-13T18:25:55.616Z,4.83
2019-05-13T18:28:01.418Z,4.22
2019-05-13T18:30:07.518Z,4.33
2019-05-13T18:32:12.320Z,4.62
2019-05-13T18:34:16.455Z,5.17
2019-05-13T18:36:22.287Z,5.50
2019-05-13T18:38:26.034Z,5.33
2019-05-13T18:40:31.583Z,5.08
2019-05-13T18:42:35.582Z,5.22
2019-05-13T18:44:41.987Z,6.20
2019-05-13T18:46:45.192Z,6.65
2019-05-13T18:48:58.523Z,7.08
2019-05-13T18:50:54.808Z,7.97
2019-05-13T18:52:58.695Z,7.20
2019-05-13T18:55:05.214Z,6.25
2019-05-13T18:57:12.810Z,5.87
2019-05-13T18:59:21.440Z,6.08
2019-05-13T19:01:25.698Z,5.72
2019-05-13T19:03:32.032Z,5.17
2019-05-13T19:05:35.164Z,8.40
2019-05-13T19:07:39.056Z,8.40
2019-05-13T19:09:42.929Z,7.58
2019-05-13T19:11:46.799Z,8.53
2019-05-13T19:13:52.783Z,7.53
2019-05-13T19:15:56.348Z,8.20
2019-05-13T19:18:00.251Z,7.00
2019-05-13T19:20:05.525Z,6.22
2019-05-13T19:22:09.411Z,6.80
2019-05-13T19:24:13.524Z,5.97
2019-05-13T19:26:17.576Z,6.70
2019-05-13T19:28:22.262Z,6.37
2019-05-13T19:30:26.234Z,6.87
2019-05-13T19:32:32.191Z,6.92
2019-05-13T19:34:35.635Z,6.37
2019-05-13T19:36:39.512Z,6.00
2019-05-13T19:38:43.354Z,5.95
2019-05-13T19:40:48.769Z,5.28
2019-05-13T19:42:52.744Z,5.53
2019-05-13T19:44:56.720Z,6.00
2019-05-13T19:47:02.018Z,7.12
2019-05-13T19:49:06.085Z,7.28
2019-05-13T19:51:10.092Z,8.40
2019-05-13T19:53:14.070Z,8.25
2019-05-13T19:55:18.132Z,8.58
2019-05-13T19:57:22.030Z,8.00
2019-05-13T19:59:25.969Z,7.55
2019-05-13T20:01:32.052Z,7.62
2019-05-13T20:03:35.420Z,7.65
2019-05-13T20:05:41.259Z,7.85
2019-05-13T20:07:52.345Z,7.50
2019-05-13T20:09:57.897Z,7.87
2019-05-13T20:12:02.194Z,8.23
2019-05-13T20:14:06.175Z,8.68
2019-05-13T20:16:11.708Z,9.48
2019-05-13T20:18:15.975Z,9.60
2019-05-13T20:20:21.282Z,10.13
2019-05-13T20:22:25.247Z,9.58
2019-05-13T20:24:31.217Z,9.75
2019-05-13T20:26:35.746Z,10.95
2019-05-13T20:28:41.820Z,10.50
2019-05-13T20:30:45.591Z,11.28
2019-05-13T20:32:51.550Z,11.63
2019-05-13T20:34:55.164Z,10.48
2019-05-13T20:36:59.038Z,10.00
2019-05-13T20:39:03.322Z,10.03
2019-05-13T20:41:07.200Z,11.00
2019-05-13T20:43:11.838Z,13.20
2019-05-13T20:45:15.904Z,13.10
2019-05-13T20:47:21.332Z,12.70
2019-05-13T20:49:25.347Z,12.58
2019-05-13T20:51:31.184Z,13.20
2019-05-13T20:53:34.771Z,12.78
2019-05-13T20:55:38.912Z,12.80
2019-05-13T20:57:42.859Z,13.80
2019-05-13T20:59:46.663Z,15.65
2019-05-13T21:01:51.160Z,17.32
2019-05-13T21:03:55.665Z,12.47
2019-05-13T21:05:59.532Z,12.15
2019-05-13T21:08:03.348Z,13.25
2019-05-13T21:10:07.346Z,12.55
2019-05-13T21:12:12.019Z,11.40
2019-05-13T21:14:16.139Z,11.03
2019-05-13T21:16:21.767Z,10.58
2019-05-13T21:18:25.533Z,10.95
2019-05-13T21:20:31.940Z,11.50
2019-05-13T21:22:35.163Z,12.50
2019-05-13T21:24:41.098Z,11.68
2019-05-13T21:26:44.610Z,12.58
2019-05-13T21:28:52.057Z,11.48
2019-05-13T21:30:58.343Z,12.93
2019-05-13T21:33:05.339Z,14.43
2019-05-13T21:35:12.119Z,13.80
2019-05-13T21:37:16.016Z,14.90
2019-05-13T21:39:21.418Z,15.18
2019-05-13T21:41:25.366Z,14.13
2019-05-13T21:43:29.307Z,13.03
2019-05-13T21:45:33.182Z,15.35
2019-05-13T21:47:37.032Z,13.35
2019-05-13T21:49:42.389Z,14.38
2019-05-13T21:51:49.524Z,14.07
2019-05-13T21:53:54.865Z,14.55
2019-05-13T21:55:58.778Z,15.40
2019-05-13T21:58:03.271Z,16.67
2019-05-13T22:00:10.561Z,17.90
2019-05-13T22:02:15.022Z,16.95
2019-05-13T22:04:18.950Z,16.97
2019-05-13T22:06:22.798Z,18.27
2019-05-13T22:08:26.649Z,18.25
2019-05-13T22:10:31.111Z,17.15
2019-05-13T22:12:35.229Z,16.62
2019-05-13T22:14:41.046Z,16.97
2019-05-13T22:16:45.448Z,17.55
2019-05-13T22:18:49.329Z,16.27
2019-05-13T22:20:53.715Z,15.95
2019-05-13T22:23:01.332Z,15.40
2019-05-13T22:25:07.706Z,15.95
2019-05-13T22:27:13.280Z,15.35
2019-05-13T22:29:17.643Z,15.63
2019-05-13T22:31:22.238Z,15.60
2019-05-13T22:33:26.565Z,14.70
2019-05-13T22:35:33.136Z,15.78
2019-05-13T22:37:37.049Z,13.90
2019-05-13T22:39:42.057Z,15.00
2019-05-13T22:41:48.516Z,15.00
2019-05-13T22:43:58.464Z,14.63
2019-05-13T22:45:58.461Z,14.90
2019-05-13T22:48:03.348Z,13.98
2019-05-13T22:50:07.467Z,14.83
2019-05-13T22:52:12.871Z,14.33
2019-05-13T22:54:16.743Z,13.62
2019-05-13T22:56:22.277Z,13.98
2019-05-13T22:58:28.050Z,14.33
2019-05-13T23:00:31.960Z,13.32
2019-05-13T23:02:36.171Z,14.18
2019-05-13T23:04:41.838Z,15.05
2019-05-13T23:06:45.953Z,14.40
2019-05-13T23:08:49.845Z,14.23
2019-05-13T23:10:54.936Z,13.98
2019-05-13T23:12:59.130Z,14.68
2019-05-13T23:15:03.423Z,14.30
2019-05-13T23:17:07.272Z,14.05
2019-05-13T23:19:11.896Z,14.00
2019-05-13T23:21:17.347Z,13.90
2019-05-13T23:23:22.145Z,13.80
2019-05-13T23:25:26.999Z,14.60
2019-05-13T23:27:32.095Z,13.35
2019-05-13T23:29:36.161Z,13.70
2019-05-13T23:31:41.477Z,12.65
2019-05-13T23:33:46.170Z,13.78
2019-05-13T23:35:51.515Z,13.18
2019-05-13T23:37:55.432Z,13.25
2019-05-13T23:40:01.259Z,12.82
2019-05-13T23:42:05.049Z,13.30
2019-05-13T23:44:23.287Z,12.23
2019-05-13T23:46:14.863Z,12.43
2019-05-13T23:48:18.759Z,13.10
2019-05-13T23:50:23.234Z,12.55
2019-05-13T23:52:27.151Z,12.23
2019-05-13T23:54:31.610Z,12.05
2019-05-13T23:56:36.983Z,12.07
2019-05-13T23:58:41.360Z,12.70
